Time;durP1;ratioP1;P1;durP2;ratioP2;P2;SDS_P1;SDS_P2;PMS_P1;PMS_P2;Temp;Humidity;BMP_temperature;BMP_pressure;BME280_temperature;BME280_humidity;BME280_pressure;Samples;Min_cycle;Max_cycle;Signal;HPM_P1;HPM_P2
2023/11/13 00:00:21;;;;;;;4.30;3.20;;;;;;;21.77;56.11;96981.16;5016012;28;20580;-29
2023/11/13 00:02:48;;;;;;;3.83;3.03;;;;;;;21.83;56.09;96995.75;5016157;28;20883;-28
2023/11/13 00:05:15;;;;;;;4.30;3.00;;;;;;;21.84;56.14;96998.34;5016236;28;20248;-27
2023/11/13 00:07:42;;;;;;;4.37;3.00;;;;;;;21.85;56.27;97014.56;5015903;28;20226;-31
2023/11/13 00:10:09;;;;;;;3.57;2.73;;;;;;;21.84;56.21;97012.84;5015783;28;20198;-26
2023/11/13 00:12:36;;;;;;;2.93;2.63;;;;;;;21.85;56.44;97005.19;5015288;28;20202;-26
2023/11/13 00:15:04;;;;;;;4.00;3.10;;;;;;;21.85;56.12;97012.88;5015863;28;20261;-32
2023/11/13 00:17:30;;;;;;;3.60;2.63;;;;;;;21.85;56.30;97019.69;5015959;28;20199;-28
2023/11/13 00:19:57;;;;;;;4.73;2.87;;;;;;;21.86;56.12;97018.84;5015352;28;20198;-27
2023/11/13 00:22:24;;;;;;;3.83;2.80;;;;;;;21.86;56.02;96990.69;5015006;28;20210;-26
2023/11/13 00:24:51;;;;;;;3.27;2.67;;;;;;;21.86;56.20;97004.34;5015807;28;20223;-29
2023/11/13 00:27:18;;;;;;;3.83;2.80;;;;;;;21.85;56.11;97005.19;5015088;28;20228;-26
2023/11/13 00:29:45;;;;;;;2.80;2.60;;;;;;;21.86;56.13;97006.03;5015906;28;20637;-28
2023/11/13 00:32:11;;;;;;;3.30;2.60;;;;;;;21.85;56.02;97005.19;5015491;28;20202;-28
2023/11/13 00:34:38;;;;;;;3.93;2.87;;;;;;;21.84;56.22;97010.28;5015076;28;20226;-26
2023/11/13 00:37:05;;;;;;;3.97;2.83;;;;;;;21.84;56.26;97003.44;5015628;28;20230;-26
2023/11/13 00:39:32;;;;;;;3.20;2.50;;;;;;;21.83;56.32;96999.19;5014686;28;20206;-28
2023/11/13 00:41:59;;;;;;;3.80;2.57;;;;;;;21.83;56.20;96999.19;5014858;28;20217;-26
2023/11/13 00:44:25;;;;;;;5.67;2.90;;;;;;;21.84;56.38;96989.81;5015252;28;20305;-28
2023/11/13 00:46:52;;;;;;;3.57;2.47;;;;;;;21.83;56.14;97004.28;5014096;28;20696;-27
2023/11/13 00:49:18;;;;;;;3.17;2.50;;;;;;;21.84;56.28;97016.25;5015366;28;20213;-27
2023/11/13 00:51:45;;;;;;;2.80;2.40;;;;;;;21.84;56.21;97016.25;5015297;28;20249;-26
2023/11/13 00:54:12;;;;;;;3.20;2.47;;;;;;;21.85;56.31;96992.41;5014378;28;20240;-30
2023/11/13 00:56:39;;;;;;;3.13;2.47;;;;;;;21.86;56.37;96995.81;5012673;28;20202;-27
2023/11/13 00:59:06;;;;;;;3.23;2.70;;;;;;;21.85;56.29;96997.53;5014907;28;20293;-26
2023/11/13 01:01:33;;;;;;;3.93;3.07;;;;;;;21.86;56.36;96994.13;4991361;28;20211;-26
2023/11/13 01:03:59;;;;;;;3.20;2.07;;;;;;;21.80;56.20;96985.47;5014963;28;20593;-28
2023/11/13 01:06:26;;;;;;;3.33;2.60;;;;;;;21.86;56.33;97000.94;5013974;28;20267;-29
2023/11/13 01:08:53;;;;;;;4.17;2.80;;;;;;;21.85;56.19;96992.41;5013193;28;20221;-28
2023/11/13 01:11:19;;;;;;;3.83;2.53;;;;;;;21.84;56.38;96984.72;5009004;28;20198;-26
2023/11/13 01:13:46;;;;;;;3.97;2.40;;;;;;;21.84;56.24;96972.75;5014321;28;20226;-26
2023/11/13 01:16:12;;;;;;;3.97;2.70;;;;;;;21.84;55.95;96990.66;5009571;28;20209;-29
2023/11/13 01:18:39;;;;;;;2.80;2.57;;;;;;;21.84;56.11;96989.81;5014108;28;20264;-26
2023/11/13 01:21:06;;;;;;;4.13;2.73;;;;;;;21.84;55.98;96987.25;5014906;28;20199;-26
2023/11/13 01:23:33;;;;;;;3.37;2.47;;;;;;;21.83;55.72;96993.19;5012665;28;20226;-32
2023/11/13 01:25:59;;;;;;;2.47;2.10;;;;;;;21.83;56.04;96990.63;5014432;28;20268;-26
2023/11/13 01:28:26;;;;;;;2.83;2.17;;;;;;;21.84;56.03;96987.25;5014551;28;20276;-26
2023/11/13 01:30:53;;;;;;;2.93;2.33;;;;;;;21.85;56.28;96992.41;5013896;28;20470;-26
2023/11/13 01:33:21;;;;;;;3.33;2.37;;;;;;;21.85;56.38;96986.41;5013769;28;20242;-26
2023/11/13 01:35:48;;;;;;;2.77;2.40;;;;;;;21.84;56.35;96975.31;5014254;28;20210;-26
2023/11/13 01:38:15;;;;;;;3.10;2.27;;;;;;;21.86;56.18;96972.78;5014192;28;20202;-26
2023/11/13 01:40:42;;;;;;;4.60;2.50;;;;;;;21.86;56.28;96976.22;5013909;28;20210;-27
2023/11/13 01:43:19;;;;;;;2.67;2.10;;;;;;;21.82;56.20;96955.66;5013945;28;20731;-26
2023/11/13 01:45:47;;;;;;;2.90;2.33;;;;;;;21.88;56.29;96968.56;4996526;28;20194;-33
2023/11/13 01:48:13;;;;;;;3.73;2.23;;;;;;;21.86;56.05;96955.75;4996152;28;20569;-26
2023/11/13 01:50:40;;;;;;;2.60;2.30;;;;;;;21.85;56.21;96951.47;4996677;28;20565;-30
2023/11/13 01:53:06;;;;;;;2.87;2.37;;;;;;;21.85;56.05;96953.16;4996377;28;20305;-26
2023/11/13 01:55:33;;;;;;;2.50;2.30;;;;;;;21.85;56.06;96945.50;4980633;28;20663;-40
2023/11/13 01:57:59;;;;;;;3.47;2.30;;;;;;;21.85;56.04;96945.50;4996128;28;20194;-26
2023/11/13 02:00:26;;;;;;;2.40;2.20;;;;;;;21.84;56.32;96948.91;4995657;28;20195;-28
2023/11/13 02:02:53;;;;;;;3.43;2.50;;;;;;;21.83;56.22;96952.25;5012154;28;20643;-27
2023/11/13 02:05:20;;;;;;;3.73;2.10;;;;;;;21.84;56.17;96959.97;5012174;28;20198;-28
2023/11/13 02:07:47;;;;;;;2.40;2.20;;;;;;;21.83;56.12;96960.81;4995594;28;20218;-26
2023/11/13 02:10:13;;;;;;;2.80;2.23;;;;;;;21.84;56.27;96961.69;4979683;28;20233;-26
2023/11/13 02:12:40;;;;;;;2.30;2.10;;;;;;;21.85;56.37;96960.84;5013146;28;20632;-26
2023/11/13 02:15:07;;;;;;;2.20;2.00;;;;;;;21.86;56.35;96957.44;5013496;28;20194;-28
2023/11/13 02:17:34;;;;;;;3.00;2.33;;;;;;;21.86;56.29;96949.75;5013142;28;20213;-26
2023/11/13 02:20:00;;;;;;;2.60;2.30;;;;;;;21.85;56.26;96948.03;5013422;28;20195;-26
2023/11/13 02:22:27;;;;;;;2.33;2.13;;;;;;;21.86;56.37;96944.66;5013185;28;20199;-28
2023/11/13 02:24:53;;;;;;;2.63;2.17;;;;;;;21.85;56.41;96935.25;5012859;28;20673;-26
2023/11/13 02:27:21;;;;;;;2.97;2.20;;;;;;;21.82;56.34;96924.97;4995833;28;20222;-27
2023/11/13 02:29:47;;;;;;;2.27;2.07;;;;;;;21.85;56.35;96935.25;5012100;28;20256;-29
2023/11/13 02:32:14;;;;;;;2.30;2.03;;;;;;;21.84;56.10;96931.81;5012989;28;20202;-28
2023/11/13 02:34:43;;;;;;;2.40;2.20;;;;;;;21.85;56.24;96935.25;5013079;28;20272;-28
2023/11/13 02:37:09;;;;;;;2.47;2.20;;;;;;;21.84;56.15;96926.72;5012984;28;20201;-26
2023/11/13 02:39:37;;;;;;;2.43;2.13;;;;;;;21.84;56.20;96916.47;5012442;28;20740;-27
2023/11/13 02:42:04;;;;;;;2.43;2.23;;;;;;;21.84;56.19;96920.75;5012964;28;20199;-32
2023/11/13 02:44:30;;;;;;;2.63;2.30;;;;;;;21.84;56.37;96919.03;5011769;28;20222;-26
2023/11/13 02:46:57;;;;;;;2.40;2.20;;;;;;;21.85;56.17;96923.34;5012898;28;20209;-27
2023/11/13 02:49:23;;;;;;;2.27;2.03;;;;;;;21.85;56.31;96925.03;5012615;28;20214;-26
2023/11/13 02:51:50;;;;;;;1.90;1.80;;;;;;;21.85;56.37;96914.78;5012105;28;20312;-29
2023/11/13 02:54:18;;;;;;;2.20;2.00;;;;;;;21.85;56.38;96909.69;5012837;28;20304;-26
2023/11/13 02:56:45;;;;;;;2.37;2.17;;;;;;;21.86;56.13;96908.84;5013070;28;20209;-26
2023/11/13 02:59:12;;;;;;;2.30;2.10;;;;;;;21.86;56.31;96901.16;5012414;28;20220;-28
2023/11/13 03:01:38;;;;;;;2.30;2.03;;;;;;;21.87;56.28;96897.78;5012249;28;20226;-31
2023/11/13 03:04:05;;;;;;;2.30;2.10;;;;;;;21.86;56.33;96899.47;5012671;28;20230;-26
2023/11/13 03:06:32;;;;;;;2.63;2.27;;;;;;;21.86;56.18;96902.03;5012007;28;20228;-26
2023/11/13 03:08:59;;;;;;;2.00;1.80;;;;;;;21.85;56.28;96909.69;5012464;28;20317;-28
2023/11/13 03:11:25;;;;;;;2.33;2.10;;;;;;;21.84;56.30;96911.38;5012119;28;20205;-28
2023/11/13 03:13:52;;;;;;;2.57;2.10;;;;;;;21.85;56.35;96919.91;5011986;28;20284;-26
2023/11/13 03:16:20;;;;;;;2.30;2.07;;;;;;;21.85;56.33;96937.81;5012152;28;20288;-26
2023/11/13 03:18:47;;;;;;;2.90;2.03;;;;;;;21.85;56.41;96937.81;5012079;28;20285;-26
2023/11/13 03:21:13;;;;;;;2.97;2.07;;;;;;;21.84;56.33;96924.16;5012527;28;20693;-38
2023/11/13 03:23:40;;;;;;;2.40;2.13;;;;;;;21.85;56.23;96914.78;5012214;28;20222;-26
2023/11/13 03:26:06;;;;;;;1.90;1.80;;;;;;;21.85;56.29;96918.22;5012455;28;20206;-26
2023/11/13 03:28:33;;;;;;;2.20;2.00;;;;;;;21.86;56.35;96916.50;5012328;28;20265;-26
2023/11/13 03:31:01;;;;;;;3.30;2.10;;;;;;;21.85;56.47;96910.56;5012868;28;20202;-30
2023/11/13 03:33:27;;;;;;;2.13;1.83;;;;;;;21.85;56.19;96905.44;5016997;28;20222;-29
2023/11/13 03:35:54;;;;;;;2.70;2.00;;;;;;;21.86;56.29;96896.91;5018098;28;20205;-31
2023/11/13 03:38:21;;;;;;;2.10;1.90;;;;;;;21.86;56.36;96890.94;5018863;28;20734;-27
2023/11/13 03:40:47;;;;;;;2.67;2.23;;;;;;;21.85;56.36;96892.66;5018702;28;20202;-26
2023/11/13 03:43:14;;;;;;;2.70;2.30;;;;;;;21.87;56.21;96895.22;5018693;28;20214;-26
2023/11/13 03:45:41;;;;;;;1.80;1.70;;;;;;;21.86;56.35;96903.72;5018264;28;20668;-26
2023/11/13 03:48:08;;;;;;;1.80;1.70;;;;;;;21.85;56.26;96905.44;5018343;28;20214;-26
2023/11/13 03:50:34;;;;;;;2.00;1.90;;;;;;;21.85;56.31;96902.88;5018542;28;20206;-26
2023/11/13 03:53:01;;;;;;;2.37;2.17;;;;;;;21.85;56.19;96896.88;5018350;28;20256;-28
2023/11/13 03:55:27;;;;;;;2.00;1.80;;;;;;;21.84;56.13;96893.47;5019439;28;20194;-26
2023/11/13 03:57:54;;;;;;;2.30;1.97;;;;;;;21.85;56.21;96894.34;5018761;28;20202;-26
2023/11/13 04:00:21;;;;;;;2.10;1.90;;;;;;;21.79;56.34;96887.38;5018808;28;20205;-27
2023/11/13 04:02:48;;;;;;;2.83;2.00;;;;;;;21.83;56.38;96891.75;5017783;28;20244;-26
2023/11/13 04:05:15;;;;;;;1.90;1.80;;;;;;;21.85;56.38;96891.78;5018370;28;20205;-26
2023/11/13 04:07:42;;;;;;;2.37;1.90;;;;;;;21.84;56.31;96880.66;5018605;28;20199;-27
2023/11/13 04:10:13;;;;;;;1.90;1.80;;;;;;;21.84;56.37;96879.84;5018571;28;20268;-26
2023/11/13 04:12:43;;;;;;;2.73;2.23;;;;;;;21.84;56.45;96867.88;5018210;28;20209;-32
2023/11/13 04:15:10;;;;;;;1.90;1.80;;;;;;;21.85;56.44;96873.88;5018767;28;20221;-28
2023/11/13 04:17:37;;;;;;;1.90;1.80;;;;;;;21.86;56.51;96870.47;5018953;28;20587;-26
2023/11/13 04:20:07;;;;;;;1.83;1.73;;;;;;;21.86;56.22;96867.91;5016294;28;20371;-28
2023/11/13 04:22:33;;;;;;;1.80;1.70;;;;;;;21.86;56.21;96868.78;5017487;28;20206;-27
2023/11/13 04:25:01;;;;;;;1.83;1.73;;;;;;;21.85;56.28;96861.94;5017295;28;20277;-37
2023/11/13 04:27:31;;;;;;;2.00;1.80;;;;;;;21.85;56.20;96866.19;5013670;28;20684;-26
2023/11/13 04:29:58;;;;;;;2.07;1.80;;;;;;;21.84;56.37;96867.88;5017767;28;20642;-26
2023/11/13 04:32:25;;;;;;;2.03;1.83;;;;;;;21.83;56.39;96863.59;5017550;28;20230;-26
2023/11/13 04:34:52;;;;;;;2.43;2.17;;;;;;;21.84;56.22;96878.13;5018123;28;20226;-29
2023/11/13 04:37:18;;;;;;;2.13;1.93;;;;;;;21.84;56.13;96880.66;5018421;28;20221;-26
2023/11/13 04:39:45;;;;;;;1.80;1.70;;;;;;;21.85;56.72;96889.22;5017194;28;20194;-28
2023/11/13 04:42:12;;;;;;;2.00;1.90;;;;;;;21.85;56.40;96884.09;5017702;28;20296;-26
2023/11/13 04:44:39;;;;;;;2.73;1.90;;;;;;;21.86;56.14;96896.03;5014882;28;20218;-30
2023/11/13 04:47:06;;;;;;;1.70;1.60;;;;;;;21.86;56.41;96893.47;5014026;28;20233;-27
2023/11/13 04:49:35;;;;;;;3.33;2.00;;;;;;;21.86;56.27;96889.25;5011800;28;20218;-26
2023/11/13 04:52:02;;;;;;;1.80;1.70;;;;;;;21.87;56.21;96890.97;5008522;28;20237;-26
2023/11/13 04:54:28;;;;;;;1.97;1.80;;;;;;;21.87;56.33;96896.06;5009114;28;20222;-26
2023/11/13 04:56:56;;;;;;;2.00;1.80;;;;;;;21.88;56.34;96895.25;5012505;28;20440;-26
2023/11/13 04:59:24;;;;;;;2.00;1.90;;;;;;;21.88;56.36;96889.28;5003941;28;20670;-26
2023/11/13 05:01:53;;;;;;;2.50;2.10;;;;;;;21.89;56.23;96898.66;5008870;28;20252;-26
2023/11/13 05:04:20;;;;;;;2.60;2.10;;;;;;;21.88;56.20;96897.81;5006220;28;20218;-27
2023/11/13 05:06:47;;;;;;;2.13;1.83;;;;;;;21.88;56.07;96890.16;5013794;28;20264;-27
2023/11/13 05:09:14;;;;;;;4.07;2.00;;;;;;;21.86;56.12;96888.38;5014694;28;20572;-26
2023/11/13 05:11:41;;;;;;;3.73;2.00;;;;;;;21.88;56.26;96889.28;5014494;28;20206;-26
2023/11/13 05:14:07;;;;;;;2.53;2.03;;;;;;;21.87;55.86;96882.44;5014091;28;20237;-26
2023/11/13 05:16:34;;;;;;;3.80;1.80;;;;;;;21.88;55.96;96882.47;4997421;28;20202;-28
2023/11/13 05:19:03;;;;;;;4.10;2.10;;;;;;;21.88;55.82;96887.59;5014339;28;20197;-29
2023/11/13 05:21:30;;;;;;;7.40;2.63;;;;;;;21.89;55.72;96891.84;5014677;28;20194;-26
2023/11/13 05:23:56;;;;;;;3.80;2.10;;;;;;;21.88;55.82;96873.91;5014239;28;20225;-28
2023/11/13 05:26:23;;;;;;;8.17;2.30;;;;;;;21.89;55.69;96886.75;5014325;28;20620;-28
2023/11/13 05:28:49;;;;;;;6.60;2.67;;;;;;;21.87;55.77;96883.28;5013535;28;20261;-26
2023/11/13 05:31:16;;;;;;;7.03;2.20;;;;;;;21.90;55.98;96885.91;5013275;28;20233;-30
2023/11/13 05:33:43;;;;;;;4.73;2.37;;;;;;;21.90;55.98;96879.94;5010578;28;20219;-37
2023/11/13 05:36:09;;;;;;;12.37;2.20;;;;;;;21.91;55.99;96873.97;4997660;28;20726;-28
2023/11/13 05:38:36;;;;;;;4.80;2.33;;;;;;;21.90;55.86;96880.78;5002546;28;20213;-30
2023/11/13 05:41:02;;;;;;;5.20;2.30;;;;;;;21.91;56.16;96881.66;5004491;28;20651;-29
2023/11/13 05:43:29;;;;;;;6.13;1.97;;;;;;;21.88;56.15;96869.69;5003048;28;20303;-29
2023/11/13 05:45:56;;;;;;;3.83;2.30;;;;;;;21.90;56.00;96890.16;5003193;28;20206;-31
2023/11/13 05:48:23;;;;;;;7.03;2.10;;;;;;;21.88;55.82;96882.47;5006814;28;20600;-26
2023/11/13 05:50:53;;;;;;;4.60;1.97;;;;;;;21.89;56.09;96880.75;5004343;28;20203;-28
2023/11/13 05:53:21;;;;;;;2.53;2.00;;;;;;;21.88;56.00;96881.59;5005524;28;20218;-28
2023/11/13 05:55:47;;;;;;;2.50;1.63;;;;;;;21.87;56.21;96878.16;5000720;28;20207;-27
2023/11/13 05:58:14;;;;;;;5.07;2.07;;;;;;;21.88;56.19;96891.81;5005618;28;20206;-31
2023/11/13 06:00:41;;;;;;;4.93;2.07;;;;;;;21.87;56.37;96890.97;5004633;28;20217;-26
2023/11/13 06:03:07;;;;;;;5.63;1.87;;;;;;;21.88;56.31;96895.25;5005414;28;20301;-28
2023/11/13 06:05:34;;;;;;;6.03;2.10;;;;;;;21.88;56.32;96894.38;5003717;28;20241;-32
2023/11/13 06:08:00;;;;;;;6.67;2.03;;;;;;;21.88;56.31;96895.25;5006462;28;20260;-31
2023/11/13 06:10:27;;;;;;;5.20;1.90;;;;;;;21.88;56.16;96889.28;5008007;28;20206;-31
2023/11/13 06:12:54;;;;;;;7.47;2.83;;;;;;;21.87;54.95;96900.34;5007435;28;20325;-28
2023/11/13 06:15:21;;;;;;;4.40;2.67;;;;;;;21.85;53.36;96902.88;5012351;28;20707;-28
2023/11/13 06:17:47;;;;;;;2.90;2.60;;;;;;;21.87;52.04;96905.47;5012824;28;20255;-26
2023/11/13 06:20:14;;;;;;;3.80;2.80;;;;;;;21.85;51.30;96905.44;5013329;28;20194;-26
2023/11/13 06:22:41;;;;;;;5.60;3.10;;;;;;;21.84;49.75;96895.19;5012855;28;20653;-34
2023/11/13 06:25:12;;;;;;;4.13;2.80;;;;;;;21.83;49.55;96896.00;5008882;28;20229;-30
2023/11/13 06:27:39;;;;;;;5.30;3.10;;;;;;;21.81;48.93;96892.53;5012806;28;20665;-26
2023/11/13 06:30:09;;;;;;;3.43;2.90;;;;;;;21.81;48.24;96902.75;5011827;28;20245;-30
2023/11/13 06:32:36;;;;;;;3.20;2.90;;;;;;;21.80;48.05;96904.47;5012267;28;20234;-27
2023/11/13 06:35:03;;;;;;;3.10;2.80;;;;;;;21.79;47.62;96902.72;5012307;28;20208;-26
2023/11/13 06:37:30;;;;;;;3.57;2.90;;;;;;;21.79;47.25;96904.44;5013084;28;20205;-33
2023/11/13 06:39:57;;;;;;;3.17;2.63;;;;;;;21.77;47.21;96901.00;5012736;28;20210;-27
2023/11/13 06:42:23;;;;;;;6.77;3.07;;;;;;;21.75;48.42;96900.97;5012295;28;20194;-26
2023/11/13 06:44:50;;;;;;;3.20;2.50;;;;;;;21.73;48.92;96898.34;5012730;28;20700;-28
2023/11/13 06:47:16;;;;;;;4.07;2.80;;;;;;;21.75;49.65;96916.31;5012005;28;20276;-28
2023/11/13 06:49:43;;;;;;;9.23;2.70;;;;;;;21.75;49.98;96916.31;5012850;28;20225;-27
2023/11/13 06:52:10;;;;;;;3.63;2.57;;;;;;;21.75;50.29;96912.88;5011812;28;20202;-26
2023/11/13 06:54:37;;;;;;;3.47;2.40;;;;;;;21.73;50.67;96895.78;5013186;28;20305;-26
2023/11/13 06:57:04;;;;;;;4.37;2.77;;;;;;;21.72;48.94;96893.19;5013236;28;20248;-30
2023/11/13 06:59:31;;;;;;;3.07;2.60;;;;;;;21.70;47.35;96903.41;5011495;28;20261;-28
2023/11/13 07:01:57;;;;;;;3.73;2.70;;;;;;;21.68;48.71;96896.53;5006390;28;20653;-30
2023/11/13 07:04:24;;;;;;;2.80;2.60;;;;;;;21.70;49.25;96918.75;5008557;28;20743;-35
2023/11/13 07:06:51;;;;;;;5.10;2.93;;;;;;;21.70;49.60;96920.44;4999577;28;20218;-33
2023/11/13 07:09:17;;;;;;;3.10;2.50;;;;;;;21.62;50.51;96901.53;5006773;28;20656;-31
2023/11/13 07:11:45;;;;;;;3.20;2.63;;;;;;;21.69;50.18;96924.72;5010193;28;20210;-34
2023/11/13 07:14:12;;;;;;;2.87;2.47;;;;;;;21.69;50.39;96932.38;4991435;28;20788;-28
2023/11/13 07:16:40;;;;;;;3.23;2.10;;;;;;;21.68;50.71;96927.22;5009177;28;20206;-27
2023/11/13 07:19:07;;;;;;;2.60;2.30;;;;;;;21.69;50.96;96932.38;5008934;28;21098;-30
2023/11/13 07:21:35;;;;;;;3.00;2.30;;;;;;;21.69;51.27;96932.38;5008802;28;20205;-31
2023/11/13 07:24:05;;;;;;;2.43;2.23;;;;;;;21.68;51.40;96925.50;5009656;28;20757;-27
2023/11/13 07:26:32;;;;;;;2.67;2.30;;;;;;;21.70;51.42;96931.53;5009515;28;20225;-29
2023/11/13 07:28:59;;;;;;;2.90;2.10;;;;;;;21.70;51.68;96923.00;5008150;28;20217;-26
2023/11/13 07:31:26;;;;;;;4.13;2.00;;;;;;;21.71;51.80;96929.84;5007231;28;20202;-31
2023/11/13 07:33:55;;;;;;;2.73;2.10;;;;;;;21.73;52.17;96932.44;5007260;28;20229;-26
2023/11/13 07:36:25;;;;;;;2.40;2.20;;;;;;;21.71;52.41;96927.28;5007685;28;20213;-29
2023/11/13 07:38:52;;;;;;;3.57;1.90;;;;;;;21.73;52.23;96928.16;5008081;28;20289;-30
2023/11/13 07:41:19;;;;;;;2.87;2.37;;;;;;;21.75;52.44;96923.97;5009182;28;20206;-29
2023/11/13 07:43:48;;;;;;;2.20;2.00;;;;;;;21.75;52.40;96923.97;5007679;28;20222;-28
2023/11/13 07:46:17;;;;;;;2.10;1.90;;;;;;;21.75;52.41;96930.78;5003704;28;20298;-35
2023/11/13 07:48:45;;;;;;;3.37;2.07;;;;;;;21.76;52.48;96932.53;5007703;28;20229;-29
2023/11/13 07:51:11;;;;;;;4.43;2.20;;;;;;;21.76;52.57;96923.13;5005684;28;20229;-26
2023/11/13 07:53:38;;;;;;;5.07;2.00;;;;;;;21.76;52.79;96930.81;5006347;28;20222;-27
2023/11/13 07:56:05;;;;;;;1.83;1.73;;;;;;;21.76;52.75;96924.84;5008626;28;20284;-30
2023/11/13 07:58:31;;;;;;;9.20;2.17;;;;;;;21.76;53.04;96932.53;5008152;28;20234;-26
2023/11/13 08:00:58;;;;;;;2.43;1.83;;;;;;;21.66;53.21;96909.31;5003659;28;20583;-27
2023/11/13 08:03:25;;;;;;;2.63;1.93;;;;;;;21.75;53.20;96931.66;5003367;28;20230;-41
2023/11/13 08:05:52;;;;;;;1.97;1.73;;;;;;;21.78;53.48;96938.50;5002460;28;20641;-27
2023/11/13 08:08:19;;;;;;;3.47;1.93;;;;;;;21.77;53.29;96942.78;5008459;28;20264;-30
2023/11/13 08:10:46;;;;;;;2.00;1.73;;;;;;;21.78;53.29;96939.38;5008075;28;20218;-29
2023/11/13 08:13:14;;;;;;;2.97;1.87;;;;;;;21.79;53.29;96937.69;5008001;28;20222;-34
2023/11/13 08:15:44;;;;;;;2.17;1.60;;;;;;;21.80;53.57;96944.53;5008269;28;20206;-27
2023/11/13 08:18:14;;;;;;;2.20;1.80;;;;;;;21.80;53.59;96936.84;5009722;28;20202;-26
2023/11/13 08:20:46;;;;;;;2.83;1.93;;;;;;;21.80;53.59;96941.97;5012210;28;20290;-28
2023/11/13 08:23:16;;;;;;;2.40;1.80;;;;;;;21.80;53.60;96940.28;5012229;28;20222;-26
2023/11/13 08:25:43;;;;;;;1.80;1.70;;;;;;;21.81;53.54;96946.25;5011899;28;20229;-27
2023/11/13 08:28:11;;;;;;;2.50;1.70;;;;;;;21.81;53.47;96952.22;5011566;28;20230;-30
2023/11/13 08:30:41;;;;;;;2.10;1.70;;;;;;;21.71;53.89;96937.53;5009475;28;20226;-30
2023/11/13 08:33:08;;;;;;;2.00;1.80;;;;;;;21.80;53.68;96958.19;5008734;28;20226;-28
2023/11/13 08:35:35;;;;;;;2.60;1.67;;;;;;;21.79;53.78;96956.44;5012115;28;20261;-30
2023/11/13 08:38:02;;;;;;;3.00;1.80;;;;;;;21.71;53.98;96932.41;5007940;28;20628;-30
2023/11/13 08:40:29;;;;;;;3.00;1.73;;;;;;;21.80;53.98;96942.84;5012533;28;20202;-30
2023/11/13 08:42:56;;;;;;;1.70;1.60;;;;;;;21.81;53.93;96949.69;5014472;28;20246;-26
2023/11/13 08:45:26;;;;;;;3.93;2.03;;;;;;;21.80;54.13;96950.53;5012713;28;20244;-28
2023/11/13 08:47:53;;;;;;;2.17;1.93;;;;;;;21.81;54.30;96954.78;5010929;28;20202;-28
2023/11/13 08:50:21;;;;;;;2.63;1.73;;;;;;;21.82;52.95;96965.91;4993779;28;20222;-30
2023/11/13 08:52:48;;;;;;;3.93;2.13;;;;;;;21.81;52.03;96966.72;5011765;28;20240;-29
2023/11/13 08:55:17;;;;;;;5.90;2.40;;;;;;;21.82;52.13;96983.81;5011451;28;20661;-28
2023/11/13 08:57:44;;;;;;;3.97;2.30;;;;;;;21.83;50.92;96980.41;5011484;28;20265;-26
2023/11/13 09:00:21;;;;;;;4.73;2.23;;;;;;;21.73;51.26;96961.41;5011408;28;20209;-31
2023/11/13 09:02:50;;;;;;;3.53;2.30;;;;;;;21.84;52.06;96980.44;5008606;28;20214;-30
2023/11/13 09:05:19;;;;;;;4.23;2.50;;;;;;;21.86;52.44;96991.56;5010157;28;20789;-26
2023/11/13 09:07:46;;;;;;;3.63;2.30;;;;;;;21.87;52.41;96982.22;5013768;28;20212;-26
2023/11/13 09:10:16;;;;;;;4.10;2.40;;;;;;;21.88;52.79;96976.25;5011155;28;20230;-38
2023/11/13 09:12:44;;;;;;;4.10;2.40;;;;;;;21.89;52.82;96976.28;5009591;28;20301;-31
2023/11/13 09:15:12;;;;;;;6.20;2.70;;;;;;;21.91;52.72;96966.94;5010919;28;20727;-30
2023/11/13 09:17:43;;;;;;;5.63;2.40;;;;;;;21.89;52.78;96954.94;5011516;28;20292;-26
2023/11/13 09:20:19;;;;;;;5.77;2.50;;;;;;;21.89;52.69;96950.69;5008830;28;20208;-32
2023/11/13 09:22:49;;;;;;;3.43;2.20;;;;;;;21.90;52.74;96960.09;5010142;28;21469;-29
2023/11/13 09:25:15;;;;;;;3.43;2.37;;;;;;;21.90;52.53;96956.69;5004629;28;20256;-26
2023/11/13 09:27:43;;;;;;;4.33;2.40;;;;;;;21.88;52.95;96945.56;5010890;28;20210;-29
2023/11/13 09:30:10;;;;;;;2.63;2.03;;;;;;;21.92;53.08;96948.19;4991986;28;20700;-31
2023/11/13 09:32:39;;;;;;;3.23;2.10;;;;;;;21.94;53.40;96955.91;5010882;28;20252;-32
2023/11/13 09:35:07;;;;;;;2.70;2.10;;;;;;;21.95;53.57;96962.72;4990228;28;20202;-26
2023/11/13 09:37:33;;;;;;;2.93;2.00;;;;;;;21.95;53.50;96955.94;5010175;28;20676;-26
2023/11/13 09:40:00;;;;;;;4.67;2.47;;;;;;;21.96;53.42;96949.97;5008386;28;20204;-36
2023/11/13 09:42:28;;;;;;;2.50;1.90;;;;;;;21.98;53.65;96942.31;5005533;28;20206;-31
2023/11/13 09:44:55;;;;;;;3.30;2.13;;;;;;;21.97;53.72;96933.81;4991855;28;20225;-29
2023/11/13 09:47:25;;;;;;;2.20;1.93;;;;;;;21.98;53.81;96939.75;4978515;28;20551;-26
2023/11/13 09:49:59;;;;;;;3.80;2.40;;;;;;;22.02;53.83;96931.31;4961920;28;20764;-26
2023/11/13 09:52:26;;;;;;;3.57;2.13;;;;;;;22.02;53.86;96934.72;5010914;28;20641;-26
2023/11/13 09:54:54;;;;;;;3.73;1.93;;;;;;;22.04;53.78;96932.19;5010472;28;20226;-28
2023/11/13 09:57:21;;;;;;;3.80;2.10;;;;;;;22.04;53.64;96937.31;4992795;28;20264;-27
2023/11/13 09:59:51;;;;;;;2.77;1.83;;;;;;;22.06;53.88;96940.78;4992452;28;20213;-30
2023/11/13 10:02:20;;;;;;;2.43;2.00;;;;;;;22.05;53.86;96944.19;5001852;28;20248;-28
2023/11/13 10:04:47;;;;;;;2.40;2.10;;;;;;;22.02;53.85;96929.59;5005786;28;20268;-29
2023/11/13 10:07:16;;;;;;;3.50;2.30;;;;;;;22.02;53.88;96933.88;4992480;28;20202;-29
2023/11/13 10:10:02;;;;;;;5.67;2.00;;;;;;;21.98;54.03;96922.72;4991954;28;20222;-31
2023/11/13 10:12:30;;;;;;;3.63;2.10;;;;;;;21.99;53.90;96928.72;4995994;28;20213;-26
2023/11/13 10:15:08;;;;;;;2.60;1.90;;;;;;;21.98;54.04;96924.41;4977747;28;20210;-26
2023/11/13 10:17:46;;;;;;;4.50;2.13;;;;;;;21.94;53.94;96933.75;5009836;28;20684;-28
2023/11/13 10:20:19;;;;;;;3.67;2.00;;;;;;;21.93;54.09;96926.88;5010185;28;20592;-30
2023/11/13 10:23:03;;;;;;;2.33;1.93;;;;;;;21.94;54.16;96930.31;5010063;28;20206;-29
2023/11/13 10:25:55;;;;;;;3.97;2.00;;;;;;;21.92;54.21;96927.72;5004675;28;20214;-31
2023/11/13 10:28:23;;;;;;;2.60;2.10;;;;;;;21.92;54.30;96925.16;5009045;28;20273;-34
2023/11/13 10:30:50;;;;;;;3.20;2.07;;;;;;;21.93;54.55;96913.25;5009510;28;20348;-33
2023/11/13 10:33:17;;;;;;;2.53;1.80;;;;;;;21.92;54.54;96898.72;5008890;28;20230;-28
2023/11/13 10:35:48;;;;;;;2.90;2.10;;;;;;;21.93;54.68;96900.47;5010277;28;20631;-26
2023/11/13 10:38:15;;;;;;;1.80;1.70;;;;;;;21.94;54.60;96900.47;5010013;28;20202;-32
2023/11/13 10:40:46;;;;;;;3.53;1.87;;;;;;;21.94;54.61;96889.38;5009601;28;20202;-31
2023/11/13 10:43:28;;;;;;;2.47;1.90;;;;;;;21.95;54.57;96885.97;5009702;28;20257;-26
2023/11/13 10:45:56;;;;;;;2.33;1.90;;;;;;;21.93;54.59;96882.56;5009668;28;20268;-29
2023/11/13 10:48:31;;;;;;;3.57;2.30;;;;;;;21.96;54.86;96896.22;4990611;28;20213;-28
2023/11/13 10:51:03;;;;;;;2.20;2.00;;;;;;;21.98;54.71;96894.56;5009646;28;20225;-32
2023/11/13 10:53:35;;;;;;;3.00;2.17;;;;;;;21.97;54.69;96886.88;4991991;28;20807;-28
2023/11/13 10:56:02;;;;;;;2.53;2.00;;;;;;;21.97;54.79;96867.28;5006682;28;20557;-29
2023/11/13 10:58:28;;;;;;;2.70;1.97;;;;;;;21.98;54.62;96899.69;5009521;28;20297;-36
2023/11/13 11:01:13;;;;;;;3.03;1.83;;;;;;;21.97;54.72;96874.97;5009367;28;20205;-29
2023/11/13 11:03:44;;;;;;;2.90;2.00;;;;;;;21.98;54.87;96876.66;5009112;28;20245;-34
2023/11/13 11:06:14;;;;;;;2.27;1.90;;;;;;;22.00;54.96;96871.56;5007314;28;20273;-27
2023/11/13 11:08:44;;;;;;;3.07;1.90;;;;;;;21.98;54.96;96874.09;5007434;28;20785;-28
2023/11/13 11:11:12;;;;;;;2.50;1.90;;;;;;;22.00;55.03;96864.78;5003872;28;20621;-28
2023/11/13 11:13:49;;;;;;;2.03;1.63;;;;;;;22.01;54.96;96855.38;5005772;28;20697;-29
2023/11/13 11:16:44;;;;;;;2.90;1.80;;;;;;;22.00;54.81;96848.56;4987655;28;20206;-31
2023/11/13 11:19:17;;;;;;;3.00;2.00;;;;;;;22.00;54.95;96839.19;5008074;28;20644;-26
2023/11/13 11:22:07;;;;;;;2.30;1.97;;;;;;;22.01;54.97;96827.22;5004016;28;20206;-30
2023/11/13 11:24:35;;;;;;;2.30;1.93;;;;;;;22.00;54.95;96821.28;4965785;28;20230;-30
2023/11/13 11:27:03;;;;;;;2.40;1.73;;;;;;;21.99;54.87;96814.41;5007372;28;20202;-28
2023/11/13 11:29:31;;;;;;;2.23;1.70;;;;;;;21.98;54.88;96822.06;5004803;28;20215;-26
2023/11/13 11:32:04;;;;;;;2.77;1.90;;;;;;;21.97;54.74;96811.00;5007597;28;20210;-29
2023/11/13 11:34:31;;;;;;;2.70;1.73;;;;;;;21.97;54.78;96810.13;4990222;28;20289;-26
2023/11/13 11:36:58;;;;;;;2.10;1.90;;;;;;;21.96;54.99;96808.41;4975703;28;20264;-27